Time;durP1;ratioP1;P1;durP2;ratioP2;P2;SDS_P1;SDS_P2;PMS_P1;PMS_P2;Temp;Humidity;BMP_temperature;BMP_pressure;BME280_temperature;BME280_humidity;BME280_pressure;Samples;Min_cycle;Max_cycle;Signal;HPM_P1;HPM_P2
2021/08/15 08:47:37;;;;;;;41.15;12.88;;;;;;;;;;2107209;27;99923;-20
2021/08/15 08:48:39;;;;;;;48.88;15.82;;;;;;;;;;2105746;27;99869;-20
2021/08/15 08:49:41;;;;;;;53.28;18.63;;;;;;;;;;2106115;27;99887;-19
2021/08/15 08:50:42;;;;;;;78.57;30.38;;;;;;;;;;2105794;27;100003;-21
2021/08/15 08:51:47;;;;;;;107.15;39.88;;;;;;;;;;2105852;27;99978;-18
2021/08/15 08:52:48;;;;;;;123.88;51.78;;;;;;;;;;2105195;27;99925;-18
2021/08/15 08:53:50;;;;;;;138.40;59.13;;;;;;;;;;2105293;27;100042;-22
2021/08/15 08:54:52;;;;;;;155.25;63.15;;;;;;;;;;2105735;27;100272;-17
2021/08/15 08:55:53;;;;;;;182.80;70.45;;;;;;;;;;2105899;27;99976;-20
2021/08/15 08:56:54;;;;;;;;;;;;;;;;;;2106532;27;99991;-18
2021/08/15 08:57:55;;;;;;;167.93;70.47;;;;;;;;;;2106000;27;100200;-19
2021/08/15 08:58:57;;;;;;;162.38;65.38;;;;;;;;;;2105596;27;100508;-21
2021/08/15 08:59:59;;;;;;;158.50;65.07;;;;;;;;;;2105711;27;100146;-21
2021/08/15 09:01:00;;;;;;;168.48;67.20;;;;;;;;;;2105365;27;100042;-19
2021/08/15 09:02:02;;;;;;;157.95;69.07;;;;;;;;;;2107546;27;99950;-18
2021/08/15 09:03:03;;;;;;;143.55;61.42;;;;;;;;;;2104588;27;100132;-22
2021/08/15 09:04:03;;;;;;;;;;;;;;;;;;2105962;27;100087;-20
2021/08/15 09:05:05;;;;;;;155.02;64.07;;;;;;;;;;2105585;27;100013;-19
2021/08/15 09:06:28;;;;;;;145.20;60.15;;;;;;;;;;2105333;27;100099;-18
2021/08/15 09:07:33;;;;;;;143.80;57.78;;;;;;;;;;2108335;27;100020;-19
2021/08/15 09:08:34;;;;;;;148.82;61.92;;;;;;;;;;2114294;27;100149;-22
2021/08/15 09:09:38;;;;;;;153.05;62.95;;;;;;;;;;2113051;27;100587;-21
2021/08/15 09:10:39;;;;;;;157.82;66.18;;;;;;;;;;2105646;27;99971;-19
2021/08/15 09:11:43;;;;;;;141.68;57.90;;;;;;;;;;2108169;27;99922;-20
2021/08/15 09:12:48;;;;;;;152.07;64.97;;;;;;;;;;2105484;27;100087;-21
2021/08/15 09:14:04;;;;;;;152.10;60.67;;;;;;;;;;2113354;27;100085;-21
2021/08/15 09:15:15;;;;;;;132.43;58.42;;;;;;;;;;2113862;27;100457;-20
2021/08/15 09:16:16;;;;;;;142.48;61.47;;;;;;;;;;2111412;27;99952;-19
2021/08/15 09:17:17;;;;;;;153.88;61.13;;;;;;;;;;2114265;27;99927;-18
2021/08/15 09:18:29;;;;;;;145.52;61.17;;;;;;;;;;2114180;27;99994;-20
2021/08/15 09:19:51;;;;;;;154.57;64.82;;;;;;;;;;2113835;27;99949;-19
2021/08/15 09:20:52;;;;;;;160.57;61.97;;;;;;;;;;2104406;27;100000;-21
2021/08/15 09:21:55;;;;;;;144.13;59.53;;;;;;;;;;2105308;27;100098;-19
2021/08/15 09:22:56;;;;;;;138.55;60.08;;;;;;;;;;2104817;27;99974;-21
2021/08/15 09:24:00;;;;;;;142.27;58.50;;;;;;;;;;2104454;27;99983;-20
2021/08/15 09:25:03;;;;;;;122.10;56.30;;;;;;;;;;2104638;27;100112;-19
2021/08/15 09:26:17;;;;;;;135.57;57.85;;;;;;;;;;2109415;27;100076;-19
2021/08/15 09:27:27;;;;;;;135.23;57.42;;;;;;;;;;2113815;27;99941;-18
2021/08/15 09:28:34;;;;;;;143.52;58.65;;;;;;;;;;2114137;27;99905;-21
2021/08/15 09:29:35;;;;;;;123.03;55.58;;;;;;;;;;2107244;27;100039;-18
2021/08/15 09:30:36;;;;;;;137.98;56.45;;;;;;;;;;2105410;27;99991;-18
2021/08/15 09:31:36;;;;;;;;;;;;;;;;;;2112599;27;100092;-21
2021/08/15 09:33:06;;;;;;;136.27;57.75;;;;;;;;;;2114440;27;99936;-19
2021/08/15 09:34:24;;;;;;;138.77;56.40;;;;;;;;;;2114098;27;100394;-19
2021/08/15 09:35:28;;;;;;;131.63;56.30;;;;;;;;;;2113116;27;99893;-19
2021/08/15 09:36:40;;;;;;;133.75;54.35;;;;;;;;;;2112763;27;100143;-18
2021/08/15 09:37:42;;;;;;;131.57;55.05;;;;;;;;;;2113563;27;99882;-22
2021/08/15 09:38:44;;;;;;;;;;;;;;;;;;2114397;27;99979;-19
2021/08/15 09:39:44;;;;;;;136.05;55.35;;;;;;;;;;2105732;27;99880;-18
2021/08/15 09:40:47;;;;;;;;;;;;;;;;;;2105708;27;100320;-19
2021/08/15 09:41:51;;;;;;;44.08;17.55;;;;;;;;;;2104981;27;100010;-18
2021/08/15 09:42:52;;;;;;;31.17;15.00;;;;;;;;;;2105020;27;100291;-18
2021/08/15 09:44:31;;;;;;;34.30;12.77;;;;;;;;;;2104591;27;100079;-21
2021/08/15 09:45:37;;;;;;;50.78;18.67;;;;;;;;;;2105446;27;100004;-19
2021/08/15 09:47:00;;;;;;;34.92;13.48;;;;;;;;;;2105243;27;99983;-21
2021/08/15 09:48:24;;;;;;;30.80;12.15;;;;;;;;;;2103279;27;100037;-18
2021/08/15 09:49:52;;;;;;;35.72;15.68;;;;;;;;;;2100029;27;99945;-21
2021/08/15 09:51:19;;;;;;;43.30;17.33;;;;;;;;;;2098408;27;100044;-18
2021/08/15 09:52:22;;;;;;;33.85;14.45;;;;;;;;;;2099778;27;100567;-21
2021/08/15 09:53:26;;;;;;;29.52;13.90;;;;;;;;;;2099541;27;100088;-19
2021/08/15 09:54:27;;;;;;;45.97;17.38;;;;;;;;;;2099973;27;99907;-20
2021/08/15 09:55:45;;;;;;;34.83;15.50;;;;;;;;;;2099716;27;99915;-18
2021/08/15 09:56:45;;;;;;;39.05;14.30;;;;;;;;;;2099549;27;100568;-19
2021/08/15 09:57:46;;;;;;;;;;;;;;;;;;2100366;27;99834;-21
2021/08/15 09:58:47;;;;;;;41.97;16.60;;;;;;;;;;2099457;27;100143;-20
2021/08/15 09:59:48;;;;;;;;;;;;;;;;;;2100052;27;100125;-18
2021/08/15 10:00:50;;;;;;;38.58;15.90;;;;;;;;;;2099583;27;100102;-19
2021/08/15 10:01:53;;;;;;;47.30;18.10;;;;;;;;;;2099681;27;100057;-22
2021/08/15 10:02:54;;;;;;;34.17;12.98;;;;;;;;;;2098701;27;99897;-20
2021/08/15 10:03:56;;;;;;;30.73;12.85;;;;;;;;;;2097299;27;100000;-19
2021/08/15 10:04:57;;;;;;;34.47;11.98;;;;;;;;;;2103944;27;99963;-20
2021/08/15 10:05:58;;;;;;;41.95;12.75;;;;;;;;;;2106987;27;100208;-19
2021/08/15 10:07:00;;;;;;;24.67;10.75;;;;;;;;;;2106769;27;100163;-18
2021/08/15 10:08:02;;;;;;;38.85;14.32;;;;;;;;;;2104055;27;99967;-20
2021/08/15 10:09:09;;;;;;;39.80;13.40;;;;;;;;;;2104050;27;100544;-22
2021/08/15 10:10:12;;;;;;;35.53;13.25;;;;;;;;;;2104549;27;100078;-19
2021/08/15 10:11:13;;;;;;;33.85;13.90;;;;;;;;;;2106405;27;100095;-20
2021/08/15 10:12:13;;;;;;;;;;;;;;;;;;2105453;27;100472;-19
2021/08/15 10:13:17;;;;;;;45.03;16.13;;;;;;;;;;2106119;27;100001;-21
2021/08/15 10:14:18;;;;;;;49.22;17.00;;;;;;;;;;2105450;27;100233;-22
2021/08/15 10:15:20;;;;;;;42.33;15.85;;;;;;;;;;2102170;27;100253;-20
2021/08/15 10:16:22;;;;;;;49.47;17.48;;;;;;;;;;2104719;27;99973;-19
2021/08/15 10:17:27;;;;;;;38.60;15.73;;;;;;;;;;2095742;27;100728;-21
2021/08/15 10:18:30;;;;;;;43.45;16.20;;;;;;;;;;2098073;27;100336;-20
2021/08/15 10:19:36;;;;;;;45.63;17.05;;;;;;;;;;2105495;27;100080;-18
2021/08/15 10:20:37;;;;;;;39.42;16.40;;;;;;;;;;2106486;27;99988;-19
2021/08/15 10:21:41;;;;;;;44.35;15.27;;;;;;;;;;2104222;27;100346;-20
2021/08/15 10:22:42;;;;;;;39.42;15.32;;;;;;;;;;2106693;27;100020;-18
2021/08/15 10:23:44;;;;;;;44.58;15.98;;;;;;;;;;2105999;27;100035;-21
2021/08/15 10:24:51;;;;;;;48.63;15.55;;;;;;;;;;2104637;27;99887;-22
2021/08/15 10:25:52;;;;;;;39.42;15.68;;;;;;;;;;2106409;27;100819;-21
2021/08/15 10:26:53;;;;;;;42.45;15.43;;;;;;;;;;2105398;27;100218;-22
2021/08/15 10:27:53;;;;;;;;;;;;;;;;;;2106168;27;100009;-19
2021/08/15 10:28:55;;;;;;;39.17;15.13;;;;;;;;;;2107127;27;99941;-22
2021/08/15 10:29:58;;;;;;;47.42;16.30;;;;;;;;;;2105384;27;100075;-20
2021/08/15 10:30:58;;;;;;;36.25;14.10;;;;;;;;;;2106635;27;101263;-19
2021/08/15 10:32:12;;;;;;;41.83;15.45;;;;;;;;;;2106479;27;100131;-21
2021/08/15 10:33:13;;;;;;;41.92;15.32;;;;;;;;;;2104246;27;100132;-19
2021/08/15 10:34:13;;;;;;;;;;;;;;;;;;2090092;27;100104;-21
2021/08/15 10:35:15;;;;;;;37.28;14.18;;;;;;;;;;2105618;27;100011;-22
2021/08/15 10:36:17;;;;;;;47.05;15.57;;;;;;;;;;2106194;27;99956;-20
2021/08/15 10:37:27;;;;;;;45.08;15.00;;;;;;;;;;2106429;27;100019;-19
2021/08/15 10:38:28;;;;;;;38.60;15.43;;;;;;;;;;2104571;27;100066;-18
2021/08/15 10:39:36;;;;;;;36.85;14.10;;;;;;;;;;2106010;27;100004;-21
2021/08/15 10:40:45;;;;;;;44.03;14.98;;;;;;;;;;2103486;27;99927;-20
2021/08/15 10:41:46;;;;;;;40.80;13.95;;;;;;;;;;2105233;27;99943;-19
2021/08/15 10:42:47;;;;;;;;;;;;;;;;;;2104178;27;99989;-19
2021/08/15 10:43:54;;;;;;;34.47;15.43;;;;;;;;;;2106529;27;100055;-19
2021/08/15 10:45:17;;;;;;;43.22;14.68;;;;;;;;;;2102391;27;99888;-20
2021/08/15 10:46:18;;;;;;;40.45;14.65;;;;;;;;;;2101297;27;100014;-19
2021/08/15 10:47:19;;;;;;;42.22;15.10;;;;;;;;;;2097442;27;103160;-20
2021/08/15 10:48:20;;;;;;;;;;;;;;;;;;2101257;27;100091;-22
2021/08/15 10:49:54;;;;;;;43.40;14.18;;;;;;;;;;2101745;27;100094;-20
2021/08/15 10:50:56;;;;;;;41.17;15.15;;;;;;;;;;2105436;27;100172;-21
2021/08/15 10:51:57;;;;;;;39.90;13.85;;;;;;;;;;2089570;27;99947;-18
2021/08/15 10:53:18;;;;;;;;;;;;;;;;;;2093474;27;100048;-22
2021/08/15 10:54:28;;;;;;;32.60;13.10;;;;;;;;;;2098560;27;100077;-19
2021/08/15 10:55:41;;;;;;;42.13;14.60;;;;;;;;;;2096840;27;100053;-19
2021/08/15 10:57:00;;;;;;;43.58;14.98;;;;;;;;;;2098171;27;100002;-19
2021/08/15 10:58:01;;;;;;;35.45;14.45;;;;;;;;;;2095612;27;99988;-21
2021/08/15 10:59:32;;;;;;;42.35;15.02;;;;;;;;;;2086745;27;100392;-21
2021/08/15 11:00:34;;;;;;;34.70;13.18;;;;;;;;;;2102313;27;99907;-19
2021/08/15 11:01:43;;;;;;;39.40;13.77;;;;;;;;;;2106363;27;99937;-19
2021/08/15 11:02:44;;;;;;;40.85;12.93;;;;;;;;;;2101793;27;100008;-20
2021/08/15 11:03:49;;;;;;;37.30;13.25;;;;;;;;;;2080505;27;100156;-22
2021/08/15 11:04:59;;;;;;;42.92;13.80;;;;;;;;;;2081705;27;100458;-20
2021/08/15 11:06:02;;;;;;;37.45;13.60;;;;;;;;;;2095679;27;100024;-20
2021/08/15 11:07:04;;;;;;;31.88;12.80;;;;;;;;;;2091560;27;101066;-22
2021/08/15 11:08:32;;;;;;;26.65;10.77;;;;;;;;;;2065047;28;100090;-23
2021/08/15 11:09:55;;;;;;;16.83;6.72;;;;;;;;;;2071117;27;100195;-21
2021/08/15 11:11:06;;;;;;;19.02;7.03;;;;;;;;;;2079751;27;99952;-21
2021/08/15 11:12:10;;;;;;;18.75;7.32;;;;;;;;;;2084103;27;100207;-21
2021/08/15 11:13:19;;;;;;;25.25;9.52;;;;;;;;;;2090432;27;100235;-19
2021/08/15 11:14:21;;;;;;;22.42;8.80;;;;;;;;;;2090953;27;100321;-20
2021/08/15 11:15:23;;;;;;;21.35;7.90;;;;;;;;;;2081407;27;99967;-22
2021/08/15 11:16:27;;;;;;;27.52;9.60;;;;;;;;;;2090504;27;99886;-19
2021/08/15 11:17:30;;;;;;;25.08;8.93;;;;;;;;;;2098585;27;99926;-21
2021/08/15 11:18:32;;;;;;;35.20;11.10;;;;;;;;;;2081523;27;101457;-19
2021/08/15 11:19:34;;;;;;;27.40;10.23;;;;;;;;;;2073368;28;100018;-22
2021/08/15 11:20:41;;;;;;;31.50;11.63;;;;;;;;;;2065302;27;101104;-18
2021/08/15 11:22:11;;;;;;;34.92;11.60;;;;;;;;;;2075001;27;100125;-19
2021/08/15 11:23:20;;;;;;;29.52;10.60;;;;;;;;;;2094427;27;99939;-18
2021/08/15 11:24:24;;;;;;;32.85;10.68;;;;;;;;;;2098846;27;100399;-21
2021/08/15 11:25:26;;;;;;;25.73;10.23;;;;;;;;;;2099046;27;99882;-18
2021/08/15 11:26:27;;;;;;;27.25;10.68;;;;;;;;;;2098683;27;100328;-17
2021/08/15 11:27:37;;;;;;;24.92;11.00;;;;;;;;;;2098572;27;100162;-17
2021/08/15 11:28:38;;;;;;;30.00;10.73;;;;;;;;;;2098508;27;100105;-21
2021/08/15 11:29:41;;;;;;;30.75;10.93;;;;;;;;;;2099170;27;99937;-17
2021/08/15 11:30:43;;;;;;;25.98;10.30;;;;;;;;;;2098998;27;99898;-19
2021/08/15 11:31:46;;;;;;;29.85;10.48;;;;;;;;;;2099131;27;99968;-18
2021/08/15 11:32:55;;;;;;;26.30;10.00;;;;;;;;;;2098681;27;99980;-18
2021/08/15 11:34:08;;;;;;;26.75;10.85;;;;;;;;;;2099141;27;99992;-18
2021/08/15 11:35:12;;;;;;;33.08;11.10;;;;;;;;;;2098423;27;100045;-20
2021/08/15 11:36:14;;;;;;;28.58;10.23;;;;;;;;;;2098260;27;100020;-18
2021/08/15 11:37:18;;;;;;;28.73;10.88;;;;;;;;;;2098172;27;100272;-19
2021/08/15 11:38:20;;;;;;;27.38;10.45;;;;;;;;;;2099131;27;100045;-17
2021/08/15 11:39:32;;;;;;;35.20;10.32;;;;;;;;;;2098606;27;100005;-17
2021/08/15 11:40:40;;;;;;;26.10;10.60;;;;;;;;;;2099016;27;100204;-18
2021/08/15 11:41:42;;;;;;;27.80;10.48;;;;;;;;;;2099016;27;100088;-16
2021/08/15 11:42:54;;;;;;;30.70;10.85;;;;;;;;;;2098897;27;100133;-17
2021/08/15 11:43:58;;;;;;;33.08;11.05;;;;;;;;;;2098817;27;101588;-18
2021/08/15 11:45:00;;;;;;;;;;;;;;;;;;2099168;27;99985;-17
2021/08/15 11:46:01;;;;;;;27.35;10.15;;;;;;;;;;2099347;27;100232;-20
2021/08/15 11:47:22;;;;;;;;;;;;;;;;;;2098967;27;100048;-17
2021/08/15 11:48:26;;;;;;;23.60;9.32;;;;;;;;;;2098409;27;99909;-20
2021/08/15 11:49:34;;;;;;;27.83;9.93;;;;;;;;;;2098789;27;99959;-18
2021/08/15 11:50:36;;;;;;;27.15;10.95;;;;;;;;;;2098565;27;100021;-18
2021/08/15 11:51:36;;;;;;;30.48;11.10;;;;;;;;;;2098561;27;99929;-18
2021/08/15 11:52:37;;;;;;;;;;;;;;;;;;2098352;27;99917;-16
2021/08/15 11:53:39;;;;;;;28.48;10.20;;;;;;;;;;2089423;27;99984;-19
2021/08/15 11:54:41;;;;;;;27.30;10.07;;;;;;;;;;2092090;27;100046;-17
2021/08/15 11:55:42;;;;;;;25.83;10.48;;;;;;;;;;2090382;27;100285;-21
2021/08/15 11:56:42;;;;;;;;;;;;;;;;;;2090128;27;99961;-19
2021/08/15 11:57:48;;;;;;;25.08;10.65;;;;;;;;;;2090303;27;99959;-21
2021/08/15 11:58:52;;;;;;;25.52;10.30;;;;;;;;;;2089961;27;99966;-18
2021/08/15 12:00:04;;;;;;;24.75;10.35;;;;;;;;;;2090021;27;99980;-17
2021/08/15 12:01:15;;;;;;;28.35;11.02;;;;;;;;;;2090575;27;99899;-17
2021/08/15 12:02:18;;;;;;;28.25;10.75;;;;;;;;;;2090381;27;99964;-18
2021/08/15 12:03:22;;;;;;;31.45;10.27;;;;;;;;;;2090528;27;99874;-21
2021/08/15 12:04:23;;;;;;;26.40;9.93;;;;;;;;;;2089743;27;100008;-19
2021/08/15 12:05:50;;;;;;;22.55;9.70;;;;;;;;;;2090418;27;100232;-19
2021/08/15 12:06:51;;;;;;;23.55;9.90;;;;;;;;;;2090791;27;100093;-18
2021/08/15 12:07:51;;;;;;;;;;;;;;;;;;2090811;27;100050;-18
2021/08/15 12:08:52;;;;;;;22.98;9.60;;;;;;;;;;2090716;27;99998;-20
2021/08/15 12:10:26;;;;;;;26.90;9.50;;;;;;;;;;2090255;27;99993;-20
2021/08/15 12:11:32;;;;;;;24.63;9.63;;;;;;;;;;2088407;27;100051;-21
2021/08/15 12:12:33;;;;;;;26.40;9.88;;;;;;;;;;2090040;27;99923;-20
2021/08/15 12:13:38;;;;;;;23.55;9.48;;;;;;;;;;2090686;27;100034;-19
2021/08/15 12:14:42;;;;;;;26.90;9.68;;;;;;;;;;2090547;27;100478;-21
2021/08/15 12:15:50;;;;;;;25.05;9.40;;;;;;;;;;2094420;27;100094;-21
2021/08/15 12:16:54;;;;;;;30.50;9.73;;;;;;;;;;2090010;27;100280;-19
2021/08/15 12:17:55;;;;;;;30.15;10.38;;;;;;;;;;2090672;27;100128;-19
2021/08/15 12:18:55;;;;;;;;;;;;;;;;;;2089126;27;99977;-19
2021/08/15 12:20:19;;;;;;;23.52;8.80;;;;;;;;;;2089321;27;100486;-18
2021/08/15 12:21:30;;;;;;;27.63;9.80;;;;;;;;;;2089154;27;99927;-20
2021/08/15 12:22:36;;;;;;;28.58;10.02;;;;;;;;;;2089675;27;99988;-18
2021/08/15 12:23:36;;;;;;;27.83;9.68;;;;;;;;;;2090212;27;99893;-19
2021/08/15 12:24:37;;;;;;;;;;;;;;;;;;2090546;27;99889;-20
2021/08/15 12:25:38;;;;;;;24.75;9.10;;;;;;;;;;2090507;27;100023;-18
2021/08/15 12:26:55;;;;;;;;;;;;;;;;;;2090762;27;100297;-19
2021/08/15 12:28:07;;;;;;;26.48;9.90;;;;;;;;;;2090467;27;100088;-20
2021/08/15 12:29:17;;;;;;;23.65;8.50;;;;;;;;;;2090230;27;99901;-18
2021/08/15 12:30:28;;;;;;;24.65;8.70;;;;;;;;;;2091987;27;99862;-18
2021/08/15 12:31:30;;;;;;;;;;;;;;;;;;2098520;27;100250;-18
2021/08/15 12:32:32;;;;;;;20.80;8.43;;;;;;;;;;2098068;27;99997;-21
2021/08/15 12:33:34;;;;;;;20.40;8.95;;;;;;;;;;2097418;27;100125;-18
2021/08/15 12:34:46;;;;;;;22.80;8.07;;;;;;;;;;2098199;27;99985;-19
2021/08/15 12:35:47;;;;;;;25.63;8.80;;;;;;;;;;2098483;27;99963;-18
2021/08/15 12:36:51;;;;;;;22.05;8.85;;;;;;;;;;2098856;27;99962;-21
2021/08/15 12:37:53;;;;;;;22.00;9.05;;;;;;;;;;2098473;27;100030;-19
2021/08/15 12:39:05;;;;;;;19.63;8.32;;;;;;;;;;2098760;27;99978;-20
2021/08/15 12:40:07;;;;;;;23.42;8.82;;;;;;;;;;2098863;27;99813;-19
2021/08/15 12:41:29;;;;;;;21.35;8.63;;;;;;;;;;2098729;27;99968;-20
2021/08/15 12:42:32;;;;;;;16.52;7.63;;;;;;;;;;2098845;27;99923;-18
2021/08/15 12:43:33;;;;;;;19.42;8.43;;;;;;;;;;2098266;27;100149;-18
2021/08/15 12:44:47;;;;;;;;;;;;;;;;;;2099362;27;99849;-20
2021/08/15 12:45:48;;;;;;;22.40;8.77;;;;;;;;;;2098831;27;99953;-20
2021/08/15 12:46:56;;;;;;;;;;;;;;;;;;2099269;27;99964;-19
2021/08/15 12:48:02;;;;;;;21.17;8.38;;;;;;;;;;2098189;27;100038;-20
2021/08/15 12:49:21;;;;;;;24.48;8.90;;;;;;;;;;2098658;27;100244;-17
2021/08/15 12:50:24;;;;;;;19.17;7.75;;;;;;;;;;2098351;27;99932;-19
2021/08/15 12:51:25;;;;;;;24.42;8.73;;;;;;;;;;2098627;27;99842;-18
2021/08/15 12:52:27;;;;;;;;;;;;;;;;;;2098697;27;99869;-20
2021/08/15 12:53:32;;;;;;;22.27;8.30;;;;;;;;;;2098284;27;100415;-19
2021/08/15 12:54:33;;;;;;;20.95;7.90;;;;;;;;;;2098084;27;99996;-19
2021/08/15 12:55:34;;;;;;;;;;;;;;;;;;2089735;27;100346;-20
2021/08/15 12:56:35;;;;;;;19.75;8.00;;;;;;;;;;2088550;27;100115;-20
2021/08/15 12:57:36;;;;;;;18.95;7.72;;;;;;;;;;2097672;27;99919;-20
2021/08/15 12:58:37;;;;;;;17.77;8.07;;;;;;;;;;2098192;27;100034;-21
2021/08/15 12:59:38;;;;;;;;;;;;;;;;;;2099161;27;100021;-17
2021/08/15 13:00:44;;;;;;;18.70;7.43;;;;;;;;;;2098267;27;99987;-17
2021/08/15 13:01:45;;;;;;;17.75;8.02;;;;;;;;;;2098641;27;100113;-18
2021/08/15 13:02:50;;;;;;;;;;;;;;;;;;2098763;27;100077;-20
2021/08/15 13:03:51;;;;;;;24.30;8.10;;;;;;;;;;2098560;27;100001;-19
2021/08/15 13:04:58;;;;;;;;;;;;;;;;;;2098592;27;100005;-21
2021/08/15 13:06:02;;;;;;;23.45;7.75;;;;;;;;;;2098465;27;100660;-21
2021/08/15 13:07:03;;;;;;;18.23;7.45;;;;;;;;;;2098303;27;99994;-20
2021/08/15 13:08:05;;;;;;;18.05;7.85;;;;;;;;;;2098548;27;100017;-21
2021/08/15 13:09:06;;;;;;;20.90;8.43;;;;;;;;;;2098241;27;100034;-19
2021/08/15 13:10:07;;;;;;;;;;;;;;;;;;2099013;27;100957;-17
2021/08/15 13:11:08;;;;;;;17.08;7.35;;;;;;;;;;2098559;27;99908;-18
2021/08/15 13:12:09;;;;;;;20.52;7.93;;;;;;;;;;2098859;27;100450;-17
2021/08/15 13:13:11;;;;;;;17.17;7.60;;;;;;;;;;2098389;27;100257;-18
2021/08/15 13:14:13;;;;;;;19.73;7.57;;;;;;;;;;2097763;27;99986;-17
2021/08/15 13:15:14;;;;;;;;;;;;;;;;;;2097889;27;100071;-20
2021/08/15 13:16:15;;;;;;;19.77;7.32;;;;;;;;;;2098820;27;99948;-20
2021/08/15 13:17:17;;;;;;;15.32;7.43;;;;;;;;;;2098267;27;100022;-18
2021/08/15 13:18:19;;;;;;;19.10;7.90;;;;;;;;;;2098841;27;100260;-18
2021/08/15 13:19:20;;;;;;;20.38;8.07;;;;;;;;;;2098475;27;100083;-19
2021/08/15 13:20:22;;;;;;;;;;;;;;;;;;2098556;27;100034;-20
2021/08/15 13:21:24;;;;;;;15.70;7.35;;;;;;;;;;2097794;27;100151;-18
2021/08/15 13:22:24;;;;;;;21.50;7.50;;;;;;;;;;2098162;27;100212;-20
2021/08/15 13:23:26;;;;;;;;;;;;;;;;;;2098408;27;99913;-21
2021/08/15 13:24:26;;;;;;;21.98;7.28;;;;;;;;;;2100245;27;99955;-20
2021/08/15 13:25:28;;;;;;;14.88;6.72;;;;;;;;;;2098826;27;99992;-18
2021/08/15 13:26:29;;;;;;;17.67;7.47;;;;;;;;;;2099009;27;100810;-20
2021/08/15 13:27:30;;;;;;;;;;;;;;;;;;2099346;27;100063;-21
2021/08/15 13:28:31;;;;;;;11.93;6.10;;;;;;;;;;2098963;27;100167;-21
2021/08/15 13:29:32;;;;;;;20.10;7.47;;;;;;;;;;2099497;27;100057;-21
2021/08/15 13:30:33;;;;;;;12.05;5.95;;;;;;;;;;2099514;27;100126;-19
2021/08/15 13:31:34;;;;;;;14.82;7.20;;;;;;;;;;2099570;27;99957;-21
2021/08/15 13:32:37;;;;;;;16.75;7.03;;;;;;;;;;2099837;27;99968;-21
2021/08/15 13:33:38;;;;;;;17.88;6.90;;;;;;;;;;2099977;27;99949;-18
2021/08/15 13:34:39;;;;;;;19.30;7.55;;;;;;;;;;2090574;27;100038;-21
2021/08/15 13:35:40;;;;;;;14.85;7.00;;;;;;;;;;2082046;27;100065;-19
2021/08/15 13:36:41;;;;;;;18.00;8.27;;;;;;;;;;2099236;27;100008;-19
2021/08/15 13:37:42;;;;;;;;;;;;;;;;;;2100334;27;99975;-21
2021/08/15 13:38:43;;;;;;;19.67;7.45;;;;;;;;;;2100251;27;100050;-18
2021/08/15 13:39:44;;;;;;;20.65;6.78;;;;;;;;;;2099973;27;99993;-18
2021/08/15 13:40:45;;;;;;;;;;;;;;;;;;2100095;27;99957;-22
2021/08/15 13:41:46;;;;;;;15.95;6.47;;;;;;;;;;2099814;27;100017;-19
2021/08/15 13:42:46;;;;;;;;;;;;;;;;;;2100566;27;100245;-18
2021/08/15 13:43:47;;;;;;;18.38;7.55;;;;;;;;;;2099873;27;99958;-17
2021/08/15 13:44:49;;;;;;;20.13;7.75;;;;;;;;;;2099923;27;99915;-20
2021/08/15 13:45:51;;;;;;;16.27;7.15;;;;;;;;;;2099625;27;100060;-19
2021/08/15 13:46:51;;;;;;;17.35;6.90;;;;;;;;;;2099492;27;99937;-19
2021/08/15 13:47:53;;;;;;;;;;;;;;;;;;2100151;27;99952;-18
2021/08/15 13:48:54;;;;;;;15.98;6.68;;;;;;;;;;2099508;27;100129;-20
2021/08/15 13:49:56;;;;;;;18.70;6.95;;;;;;;;;;2099852;27;99999;-19
2021/08/15 13:50:57;;;;;;;18.55;6.82;;;;;;;;;;2099878;27;100234;-18
2021/08/15 13:51:57;;;;;;;;;;;;;;;;;;2099784;27;99997;-27
2021/08/15 13:52:58;;;;;;;19.98;6.65;;;;;;;;;;2099291;27;100089;-20
2021/08/15 13:54:03;;;;;;;17.45;6.72;;;;;;;;;;2099730;27;100220;-20
2021/08/15 13:55:05;;;;;;;17.65;6.93;;;;;;;;;;2099555;27;99874;-20
2021/08/15 13:56:06;;;;;;;16.17;6.75;;;;;;;;;;2099287;27;100000;-19
2021/08/15 13:57:07;;;;;;;;;;;;;;;;;;2099870;27;100085;-18
2021/08/15 13:58:10;;;;;;;15.52;6.55;;;;;;;;;;2099451;27;99993;-20
2021/08/15 13:59:10;;;;;;;16.73;7.05;;;;;;;;;;2099276;27;99980;-17
2021/08/15 14:00:12;;;;;;;;;;;;;;;;;;2099856;27;100406;-18
2021/08/15 14:01:13;;;;;;;15.50;6.32;;;;;;;;;;2099659;27;99976;-21
2021/08/15 14:02:14;;;;;;;;;;;;;;;;;;2099507;27;100002;-18
2021/08/15 14:03:14;;;;;;;17.50;5.93;;;;;;;;;;2099030;27;100118;-19
2021/08/15 14:04:15;;;;;;;;;;;;;;;;;;2100151;27;100480;-18
2021/08/15 14:05:16;;;;;;;17.30;6.40;;;;;;;;;;2099310;27;100030;-20
2021/08/15 14:06:17;;;;;;;15.82;6.18;;;;;;;;;;2099429;27;99792;-20
2021/08/15 14:07:18;;;;;;;;;;;;;;;;;;2100089;27;99887;-20
2021/08/15 14:08:18;;;;;;;14.77;6.75;;;;;;;;;;2099839;27;99893;-18
2021/08/15 14:09:19;;;;;;;15.20;6.40;;;;;;;;;;2099377;27;100064;-20
2021/08/15 14:10:20;;;;;;;10.93;5.75;;;;;;;;;;2099699;27;99986;-21
2021/08/15 14:11:21;;;;;;;18.67;7.05;;;;;;;;;;2099595;27;99991;-20
2021/08/15 14:12:22;;;;;;;;;;;;;;;;;;2099996;27;99989;-21
2021/08/15 14:13:23;;;;;;;13.45;5.93;;;;;;;;;;2099771;27;99993;-17
2021/08/15 14:14:24;;;;;;;;;;;;;;;;;;2100349;27;99824;-18
2021/08/15 14:15:25;;;;;;;15.70;6.40;;;;;;;;;;2099594;27;99904;-18
2021/08/15 14:16:26;;;;;;;18.23;6.03;;;;;;;;;;2099622;27;99837;-21
2021/08/15 14:17:27;;;;;;;13.65;6.30;;;;;;;;;;2099662;27;100041;-20
2021/08/15 14:18:28;;;;;;;;;;;;;;;;;;2099888;27;100056;-20
2021/08/15 14:19:29;;;;;;;16.45;6.35;;;;;;;;;;2099757;27;100672;-20
2021/08/15 14:20:30;;;;;;;;;;;;;;;;;;2099824;27;100022;-20
2021/08/15 14:21:31;;;;;;;15.27;6.30;;;;;;;;;;2099611;27;99999;-21
2021/08/15 14:22:32;;;;;;;11.68;5.97;;;;;;;;;;2099873;27;100430;-20
2021/08/15 14:23:32;;;;;;;;;;;;;;;;;;2099681;27;100026;-17
2021/08/15 14:24:34;;;;;;;14.10;6.17;;;;;;;;;;2099584;27;100220;-19
2021/08/15 14:25:35;;;;;;;10.70;5.90;;;;;;;;;;2098944;27;100276;-19
2021/08/15 14:26:35;;;;;;;13.10;6.13;;;;;;;;;;2099019;27;100419;-18
2021/08/15 14:27:37;;;;;;;;;;;;;;;;;;2098799;27;99933;-19
2021/08/15 14:28:38;;;;;;;11.18;5.50;;;;;;;;;;2090053;27;100047;-21
2021/08/15 14:29:38;;;;;;;13.07;5.93;;;;;;;;;;2098427;27;101059;-18
2021/08/15 14:30:39;;;;;;;18.42;6.25;;;;;;;;;;2098781;27;100006;-19
2021/08/15 14:31:40;;;;;;;13.20;5.90;;;;;;;;;;2098582;27;100029;-20
2021/08/15 14:32:42;;;;;;;16.33;6.32;;;;;;;;;;2099276;27;100100;-19
2021/08/15 14:33:43;;;;;;;12.60;6.18;;;;;;;;;;2099332;27;100089;-17
2021/08/15 14:34:45;;;;;;;19.08;6.32;;;;;;;;;;2099331;27;100161;-17
2021/08/15 14:35:46;;;;;;;14.75;6.30;;;;;;;;;;2099241;27;100019;-21
2021/08/15 14:36:49;;;;;;;;;;;;;;;;;;2098934;27;100236;-19
2021/08/15 14:37:49;;;;;;;19.83;6.40;;;;;;;;;;2098530;27;100030;-21
2021/08/15 14:38:50;;;;;;;;;;;;;;;;;;2099393;27;100035;-21
2021/08/15 14:39:51;;;;;;;12.85;5.25;;;;;;;;;;2099106;27;100052;-18
2021/08/15 14:40:52;;;;;;;13.70;6.30;;;;;;;;;;2099503;27;100043;-21
2021/08/15 14:41:53;;;;;;;15.05;5.95;;;;;;;;;;2099597;27;99984;-21
2021/08/15 14:42:54;;;;;;;;;;;;;;;;;;2099132;27;100175;-20
2021/08/15 14:43:55;;;;;;;15.05;5.68;;;;;;;;;;2098878;27;100453;-18
2021/08/15 14:44:56;;;;;;;20.30;6.32;;;;;;;;;;2099437;27;99897;-20
2021/08/15 14:45:57;;;;;;;;;;;;;;;;;;2100023;27;99875;-19
2021/08/15 14:46:59;;;;;;;14.60;5.85;;;;;;;;;;2099071;27;100426;-18
2021/08/15 14:48:00;;;;;;;11.63;5.82;;;;;;;;;;2099418;27;99992;-18
2021/08/15 14:49:01;;;;;;;;;;;;;;;;;;2099770;27;100063;-18
2021/08/15 14:50:02;;;;;;;11.48;5.18;;;;;;;;;;2099175;27;100092;-18
2021/08/15 14:51:03;;;;;;;11.50;5.30;;;;;;;;;;2099053;27;99948;-21
2021/08/15 14:52:04;;;;;;;10.85;6.00;;;;;;;;;;2098382;27;99983;-20
2021/08/15 14:53:05;;;;;;;15.50;6.45;;;;;;;;;;2102199;27;99962;-19
2021/08/15 14:54:06;;;;;;;10.82;5.47;;;;;;;;;;2108068;27;99897;-20
2021/08/15 14:55:07;;;;;;;;;;;;;;;;;;2107728;27;99945;-21
2021/08/15 14:56:08;;;;;;;15.90;5.60;;;;;;;;;;2105154;27;100098;-22
2021/08/15 14:57:09;;;;;;;9.65;5.18;;;;;;;;;;2102807;27;100061;-19
2021/08/15 14:58:11;;;;;;;14.48;5.50;;;;;;;;;;2107710;27;100039;-21
2021/08/15 14:59:12;;;;;;;12.57;5.32;;;;;;;;;;2107541;27;100104;-19
2021/08/15 15:00:13;;;;;;;12.02;5.45;;;;;;;;;;2107139;27;100015;-20
2021/08/15 15:01:15;;;;;;;11.23;5.38;;;;;;;;;;2094203;27;100269;-20
2021/08/15 15:02:17;;;;;;;15.88;6.05;;;;;;;;;;2080763;27;99903;-18
2021/08/15 15:03:18;;;;;;;12.90;5.50;;;;;;;;;;2089399;27;100020;-19
2021/08/15 15:04:19;;;;;;;;;;;;;;;;;;2099129;27;99897;-20
2021/08/15 15:05:19;;;;;;;12.75;5.25;;;;;;;;;;2098489;27;100141;-20
2021/08/15 15:06:20;;;;;;;11.35;5.53;;;;;;;;;;2099009;27;99912;-21
2021/08/15 15:07:21;;;;;;;;;;;;;;;;;;2105733;27;100038;-20
2021/08/15 15:08:22;;;;;;;15.18;5.43;;;;;;;;;;2107032;27;101785;-20